Time;durP1;ratioP1;P1;durP2;ratioP2;P2;SDS_P1;SDS_P2;PMS_P1;PMS_P2;Temp;Humidity;BMP_temperature;BMP_pressure;BME280_temperature;BME280_humidity;BME280_pressure;Samples;Min_cycle;Max_cycle;Signal;HPM_P1;HPM_P2
2022/08/05 00:00:18;;;;;;;8.60;3.47;;;26.00;99.90;;;;;;4953735;29;20458;-78
2022/08/05 00:02:45;;;;;;;7.95;3.15;;;26.10;99.90;;;;;;4953271;29;20055;-78
2022/08/05 00:05:11;;;;;;;9.70;3.33;;;26.00;99.90;;;;;;4953690;29;20027;-78
2022/08/05 00:07:37;;;;;;;8.00;4.03;;;26.10;99.90;;;;;;4953493;29;20361;-78
2022/08/05 00:10:03;;;;;;;13.18;3.30;;;26.10;99.90;;;;;;4953701;29;20456;-78
2022/08/05 00:12:29;;;;;;;11.30;3.25;;;26.10;99.90;;;;;;4953778;29;20092;-78
2022/08/05 00:14:55;;;;;;;10.30;3.70;;;26.00;99.90;;;;;;4953546;29;20024;-78
2022/08/05 00:17:20;;;;;;;11.90;3.80;;;25.90;99.90;;;;;;4953340;29;20535;-78
2022/08/05 00:19:46;;;;;;;10.07;3.50;;;25.80;99.90;;;;;;4953440;29;20031;-78
2022/08/05 00:22:12;;;;;;;7.88;3.00;;;25.90;99.90;;;;;;4953599;29;20054;-78
2022/08/05 00:24:38;;;;;;;15.88;4.57;;;25.80;99.90;;;;;;4957857;28;20030;-78
2022/08/05 00:27:04;;;;;;;8.80;3.83;;;25.50;99.90;;;;;;4972587;28;20031;-78
2022/08/05 00:29:30;;;;;;;9.70;3.65;;;25.40;99.90;;;;;;4973140;28;20027;-78
2022/08/05 00:31:55;;;;;;;10.10;3.42;;;25.60;99.90;;;;;;4972474;28;20019;-78
2022/08/05 00:34:21;;;;;;;9.00;3.17;;;25.60;99.90;;;;;;4972563;28;20033;-78
2022/08/05 00:36:47;;;;;;;7.82;3.70;;;25.60;99.90;;;;;;4972880;28;20367;-78
2022/08/05 00:39:12;;;;;;;12.70;3.80;;;25.60;99.90;;;;;;4967842;28;20032;-78
2022/08/05 00:41:38;;;;;;;10.23;3.17;;;25.60;99.90;;;;;;4953543;29;20028;-78
2022/08/05 00:44:04;;;;;;;11.02;3.40;;;25.50;99.90;;;;;;4953145;29;20035;-78
2022/08/05 00:46:29;;;;;;;7.80;3.40;;;25.50;99.90;;;;;;4953238;29;20082;-78
2022/08/05 00:48:55;;;;;;;9.27;3.30;;;25.20;99.90;;;;;;4953096;29;20023;-78
2022/08/05 00:51:22;;;;;;;7.85;3.22;;;25.30;99.90;;;;;;4943028;29;20047;-78
2022/08/05 00:53:48;;;;;;;10.32;3.50;;;25.10;99.90;;;;;;4953435;28;20027;-78
2022/08/05 00:56:16;;;;;;;7.50;3.38;;;25.30;99.90;;;;;;4941359;29;20027;-78
2022/08/05 00:58:45;;;;;;;13.75;3.88;;;25.40;99.90;;;;;;4956867;28;20027;-78
2022/08/05 01:01:12;;;;;;;8.52;3.58;;;25.40;99.90;;;;;;4956542;29;20061;-78
2022/08/05 01:03:38;;;;;;;10.63;3.47;;;25.30;99.90;;;;;;4957273;28;20031;-79
2022/08/05 01:06:05;;;;;;;8.40;3.47;;;25.40;99.90;;;;;;4956133;28;20411;-78
2022/08/05 01:08:31;;;;;;;11.13;3.53;;;25.20;99.90;;;;;;4956613;28;20082;-78
2022/08/05 01:11:01;;;;;;;7.50;4.10;;;25.20;99.90;;;;;;4956332;28;20024;-78
2022/08/05 01:13:54;;;;;;;7.70;3.33;;;25.20;99.90;;;;;;4957038;28;20376;-78
2022/08/05 01:16:29;;;;;;;8.77;3.28;;;25.20;99.90;;;;;;4956889;28;20102;-78
2022/08/05 01:19:01;;;;;;;11.18;3.85;;;25.10;99.90;;;;;;4955963;28;20016;-78
2022/08/05 01:21:30;;;;;;;8.25;3.75;;;25.00;99.90;;;;;;4948336;28;20022;-78
2022/08/05 01:24:29;;;;;;;8.07;3.80;;;24.90;99.90;;;;;;4975489;28;20102;-78
2022/08/05 01:27:24;;;;;;;9.95;4.07;;;24.80;99.90;;;;;;4936989;29;20028;-78
2022/08/05 01:29:55;;;;;;;7.45;3.53;;;24.80;99.90;;;;;;4936981;29;20024;-78
2022/08/05 01:32:26;;;;;;;8.32;4.00;;;24.70;99.90;;;;;;4937467;29;20031;-78
2022/08/05 01:34:59;;;;;;;10.68;3.47;;;24.70;99.90;;;;;;4957502;28;20078;-78
2022/08/05 01:37:31;;;;;;;12.48;3.60;;;24.70;99.90;;;;;;4956172;28;20110;-78
2022/08/05 01:39:59;;;;;;;6.25;3.47;;;24.70;99.90;;;;;;4956054;28;20029;-78
2022/08/05 01:42:26;;;;;;;5.93;3.30;;;24.70;99.90;;;;;;4955280;28;20022;-78
2022/08/05 01:44:55;;;;;;;11.50;3.47;;;24.70;99.90;;;;;;4955929;28;20387;-78
2022/08/05 01:47:22;;;;;;;6.60;3.50;;;24.70;99.90;;;;;;4955434;28;20038;-78
2022/08/05 01:49:51;;;;;;;8.65;3.60;;;24.60;99.90;;;;;;4956069;28;20109;-78
2022/08/05 01:52:19;;;;;;;11.85;3.72;;;24.50;99.90;;;;;;4955530;28;20500;-78
2022/08/05 01:54:52;;;;;;;13.18;3.22;;;24.20;99.90;;;;;;4955810;29;20027;-78
2022/08/05 01:57:25;;;;;;;8.65;3.50;;;24.20;99.90;;;;;;4955750;29;20027;-78
2022/08/05 01:59:53;;;;;;;9.10;3.47;;;24.20;99.90;;;;;;4956067;28;20031;-78
2022/08/05 02:02:21;;;;;;;5.25;2.92;;;24.20;99.90;;;;;;4974259;28;20553;-78
2022/08/05 02:04:50;;;;;;;10.65;3.33;;;24.20;99.90;;;;;;4974433;28;20455;-78
2022/08/05 02:07:16;;;;;;;5.72;2.72;;;24.10;99.90;;;;;;4974633;28;20026;-78
2022/08/05 02:09:45;;;;;;;9.05;3.60;;;23.90;99.90;;;;;;4974963;28;20056;-78
2022/08/05 02:12:38;;;;;;;11.70;3.20;;;24.00;99.90;;;;;;4974602;28;20027;-78
2022/08/05 02:15:16;;;;;;;5.80;2.47;;;23.80;99.90;;;;;;4896010;29;20124;-78
2022/08/05 02:17:56;;;;;;;5.78;2.47;;;23.90;99.90;;;;;;4896019;29;20045;-78
2022/08/05 02:20:25;;;;;;;7.50;2.65;;;23.80;99.90;;;;;;4896504;29;20041;-78
2022/08/05 02:23:06;;;;;;;7.35;2.60;;;23.70;99.90;;;;;;4896474;29;20115;-78
2022/08/05 02:25:34;;;;;;;7.30;2.88;;;23.50;99.90;;;;;;4896191;29;20078;-78
2022/08/05 02:28:02;;;;;;;7.25;2.38;;;23.60;99.90;;;;;;4886441;29;20076;-78
2022/08/05 02:30:49;;;;;;;5.38;2.28;;;23.60;99.90;;;;;;4914776;29;20029;-78
2022/08/05 02:33:17;;;;;;;8.35;2.22;;;23.50;99.90;;;;;;4914718;29;20039;-78
2022/08/05 02:35:45;;;;;;;5.13;2.13;;;23.60;99.90;;;;;;4914846;29;20512;-78
2022/08/05 02:38:14;;;;;;;8.43;2.67;;;23.60;99.90;;;;;;4914576;29;20032;-78
2022/08/05 02:40:42;;;;;;;4.60;2.10;;;23.60;99.90;;;;;;4914170;29;20553;-78
2022/08/05 02:43:14;;;;;;;6.53;2.35;;;23.60;99.90;;;;;;4914588;29;20032;-78
2022/08/05 02:45:44;;;;;;;7.80;2.60;;;23.40;99.90;;;;;;4915006;29;20048;-78
2022/08/05 02:48:11;;;;;;;9.60;2.67;;;23.40;99.90;;;;;;4914142;29;20028;-78
2022/08/05 02:50:37;;;;;;;8.15;2.33;;;23.40;99.90;;;;;;4903437;29;20480;-78
2022/08/05 02:53:04;;;;;;;6.75;2.40;;;23.40;99.90;;;;;;4950941;29;20035;-78
2022/08/05 02:55:32;;;;;;;5.78;2.60;;;23.30;99.90;;;;;;4954385;29;20063;-78
2022/08/05 02:57:59;;;;;;;7.30;2.58;;;23.40;99.90;;;;;;4954439;28;20102;-78
2022/08/05 03:00:25;;;;;;;7.63;2.70;;;23.20;99.90;;;;;;4953774;29;20550;-78
2022/08/05 03:02:52;;;;;;;6.80;2.33;;;23.30;99.90;;;;;;4954501;28;20037;-78
2022/08/05 03:05:19;;;;;;;7.65;3.13;;;23.30;99.90;;;;;;4954204;28;20468;-78
2022/08/05 03:07:45;;;;;;;8.05;2.80;;;23.20;99.90;;;;;;4954545;28;20031;-78
2022/08/05 03:10:14;;;;;;;9.30;3.33;;;23.10;99.90;;;;;;4953871;28;20041;-78
2022/08/05 03:12:39;;;;;;;7.40;2.58;;;23.10;99.90;;;;;;4954478;28;20428;-78
2022/08/05 03:15:08;;;;;;;10.10;3.58;;;23.10;99.90;;;;;;4954165;29;20087;-78
2022/08/05 03:17:35;;;;;;;11.07;3.38;;;22.90;99.90;;;;;;4953395;28;20124;-78
2022/08/05 03:20:00;;;;;;;9.80;3.30;;;22.80;99.90;;;;;;4954387;28;20031;-78
2022/08/05 03:22:26;;;;;;;6.47;3.17;;;23.00;99.90;;;;;;4954233;28;20344;-78
2022/08/05 03:24:52;;;;;;;8.23;3.25;;;22.70;99.90;;;;;;4954073;29;20105;-78
2022/08/05 03:27:19;;;;;;;11.40;3.58;;;22.70;99.90;;;;;;4954409;29;20542;-78
2022/08/05 03:29:46;;;;;;;5.72;3.28;;;22.80;99.90;;;;;;4954403;29;20023;-78
2022/08/05 03:32:14;;;;;;;6.60;3.20;;;22.90;99.90;;;;;;4953809;29;20411;-78
2022/08/05 03:34:42;;;;;;;9.10;3.38;;;22.90;99.90;;;;;;4954236;29;20503;-78
2022/08/05 03:37:08;;;;;;;9.07;4.05;;;22.90;99.90;;;;;;4953640;29;20034;-78
2022/08/05 03:39:33;;;;;;;10.68;3.22;;;22.80;99.90;;;;;;4953688;28;20035;-78
2022/08/05 03:41:59;;;;;;;7.50;4.13;;;22.80;99.90;;;;;;4954138;28;20029;-78
2022/08/05 03:44:25;;;;;;;11.95;3.78;;;22.90;99.90;;;;;;4953484;28;20061;-78
2022/08/05 03:46:51;;;;;;;9.55;3.88;;;22.90;99.90;;;;;;4954095;28;20365;-78
2022/08/05 03:49:17;;;;;;;9.80;4.18;;;22.80;99.90;;;;;;4953263;29;20107;-78
2022/08/05 03:52:04;;;;;;;13.40;4.03;;;22.70;99.90;;;;;;4953262;29;20471;-79
2022/08/05 03:54:56;;;;;;;9.40;4.40;;;22.80;99.90;;;;;;4953679;29;20052;-78
2022/08/05 03:57:25;;;;;;;8.23;3.90;;;22.70;99.90;;;;;;4936343;29;20035;-78
2022/08/05 04:00:10;;;;;;;9.73;4.88;;;22.60;99.90;;;;;;4953698;29;20027;-78
2022/08/05 04:02:37;;;;;;;12.77;5.05;;;22.70;99.90;;;;;;4953551;28;20027;-77
2022/08/05 04:05:04;;;;;;;7.32;4.25;;;22.70;99.90;;;;;;4936422;29;20023;-78
2022/08/05 04:07:30;;;;;;;10.27;5.03;;;22.70;99.90;;;;;;4953553;29;20094;-78
2022/08/05 04:09:57;;;;;;;14.20;5.43;;;22.70;99.90;;;;;;4953560;29;20455;-78
2022/08/05 04:12:23;;;;;;;12.70;5.13;;;22.60;99.90;;;;;;4953069;29;20027;-78
2022/08/05 04:14:49;;;;;;;13.45;5.00;;;22.70;99.90;;;;;;4953237;29;20027;-78
2022/08/05 04:17:15;;;;;;;8.65;4.55;;;22.80;99.90;;;;;;4953453;29;20034;-78
2022/08/05 04:19:45;;;;;;;9.73;5.55;;;22.60;99.90;;;;;;4954134;29;20031;-78
2022/08/05 04:22:14;;;;;;;11.98;5.13;;;22.60;99.90;;;;;;4953460;29;20031;-78
2022/08/05 04:24:42;;;;;;;10.90;5.13;;;22.60;99.90;;;;;;4953865;29;20055;-78
2022/08/05 04:27:08;;;;;;;9.77;5.75;;;22.70;99.90;;;;;;4935644;29;20024;-78
2022/08/05 04:29:34;;;;;;;13.85;5.93;;;22.50;99.90;;;;;;4938897;29;20034;-77
2022/08/05 04:32:00;;;;;;;18.13;5.50;;;22.60;99.90;;;;;;4957662;29;20027;-77
2022/08/05 04:34:26;;;;;;;12.75;5.25;;;22.50;99.90;;;;;;4957174;29;20031;-78
2022/08/05 04:36:51;;;;;;;9.75;4.80;;;22.50;99.90;;;;;;4957649;28;20103;-78
2022/08/05 04:39:18;;;;;;;12.18;4.80;;;22.40;99.90;;;;;;4956841;29;20423;-78
2022/08/05 04:41:44;;;;;;;15.13;5.22;;;22.50;99.90;;;;;;4956856;29;20027;-78
2022/08/05 04:44:10;;;;;;;9.88;5.25;;;22.50;99.90;;;;;;4956771;29;20486;-78
2022/08/05 04:46:39;;;;;;;22.00;5.40;;;22.60;99.90;;;;;;4957298;29;20024;-78
2022/08/05 04:49:06;;;;;;;13.60;5.15;;;22.60;99.90;;;;;;4957041;29;20027;-78
2022/08/05 04:51:32;;;;;;;10.60;5.03;;;22.50;99.90;;;;;;4955874;28;20561;-78
2022/08/05 04:54:00;;;;;;;9.98;4.55;;;22.50;99.90;;;;;;4956908;29;20064;-78
2022/08/05 04:56:26;;;;;;;13.18;5.13;;;22.50;99.90;;;;;;4956649;29;20031;-77
2022/08/05 04:58:52;;;;;;;9.13;5.50;;;22.50;99.90;;;;;;4939203;29;20391;-78
2022/08/05 05:01:17;;;;;;;10.23;4.85;;;22.40;99.90;;;;;;4956777;29;20041;-78
2022/08/05 05:03:43;;;;;;;11.23;4.88;;;22.50;99.90;;;;;;4956728;29;20454;-78
2022/08/05 05:06:10;;;;;;;12.93;4.45;;;22.60;99.90;;;;;;4956687;29;20582;-78
2022/08/05 05:08:36;;;;;;;9.25;4.47;;;22.50;99.90;;;;;;4956752;29;20034;-78
2022/08/05 05:11:02;;;;;;;12.23;4.88;;;22.50;99.90;;;;;;4956674;29;20398;-78
2022/08/05 05:13:28;;;;;;;9.25;4.30;;;22.50;99.90;;;;;;4956078;29;20027;-78
2022/08/05 05:15:54;;;;;;;14.20;4.45;;;22.50;99.90;;;;;;4956714;29;20054;-78
2022/08/05 05:18:20;;;;;;;9.93;4.20;;;22.60;99.90;;;;;;4956267;29;20023;-78
2022/08/05 05:20:46;;;;;;;14.75;4.32;;;22.60;99.90;;;;;;4939238;29;20122;-78
2022/08/05 05:23:15;;;;;;;10.18;4.45;;;22.70;99.90;;;;;;4956225;29;20038;-78
2022/08/05 05:25:44;;;;;;;9.88;5.03;;;22.80;99.90;;;;;;4956484;29;20038;-78
2022/08/05 05:28:10;;;;;;;10.85;4.60;;;22.80;99.90;;;;;;4955938;29;20033;-78
2022/08/05 05:30:37;;;;;;;17.65;5.18;;;22.80;99.90;;;;;;4955512;28;20028;-77
2022/08/05 05:33:05;;;;;;;11.57;4.75;;;22.90;99.90;;;;;;4953677;28;20558;-77
2022/08/05 05:35:32;;;;;;;11.68;4.28;;;22.80;99.90;;;;;;4974992;28;20084;-78
2022/08/05 05:38:01;;;;;;;15.50;4.07;;;22.80;99.90;;;;;;4975431;28;20015;-78
2022/08/05 05:40:29;;;;;;;10.98;4.68;;;22.80;99.90;;;;;;4973908;28;20026;-78
2022/08/05 05:42:54;;;;;;;9.05;4.05;;;22.80;99.90;;;;;;4975774;28;20019;-78
2022/08/05 05:45:20;;;;;;;7.95;4.25;;;22.90;99.90;;;;;;4966009;28;20038;-78
2022/08/05 05:47:47;;;;;;;11.88;4.55;;;23.00;99.90;;;;;;4955816;29;20396;-78
2022/08/05 05:50:15;;;;;;;12.73;4.28;;;22.90;99.90;;;;;;4956157;28;20035;-78
2022/08/05 05:52:41;;;;;;;11.57;4.20;;;22.90;99.90;;;;;;4955038;29;20480;-78
2022/08/05 05:55:11;;;;;;;11.55;4.43;;;23.00;99.90;;;;;;4955577;29;20047;-78
2022/08/05 05:57:39;;;;;;;10.98;4.50;;;23.10;99.90;;;;;;4955616;29;20027;-78
2022/08/05 06:00:11;;;;;;;13.95;4.55;;;23.10;99.90;;;;;;4955639;29;20058;-78
2022/08/05 06:02:36;;;;;;;11.20;3.70;;;23.10;99.90;;;;;;4955137;29;20081;-78
2022/08/05 06:05:02;;;;;;;11.73;4.50;;;23.20;99.90;;;;;;4955919;29;20106;-78
2022/08/05 06:07:28;;;;;;;10.98;4.57;;;23.20;99.90;;;;;;4955361;29;20046;-78
2022/08/05 06:09:53;;;;;;;14.73;4.30;;;23.20;99.90;;;;;;4955371;29;20023;-78
2022/08/05 06:12:19;;;;;;;11.43;4.13;;;23.30;99.90;;;;;;4955758;29;20030;-78
2022/08/05 06:14:45;;;;;;;10.30;4.47;;;23.40;99.90;;;;;;4955177;29;20136;-78
2022/08/05 06:17:11;;;;;;;9.25;4.18;;;23.30;99.90;;;;;;4955390;29;20028;-78
2022/08/05 06:19:37;;;;;;;11.40;4.30;;;23.40;99.90;;;;;;4937963;29;20034;-78
2022/08/05 06:22:05;;;;;;;9.23;3.78;;;23.40;99.90;;;;;;4955397;29;20546;-78
2022/08/05 06:24:31;;;;;;;10.07;3.53;;;23.40;99.90;;;;;;4937693;29;20035;-78
2022/08/05 06:26:57;;;;;;;10.27;4.20;;;23.40;99.90;;;;;;4954732;29;20039;-78
2022/08/05 06:29:23;;;;;;;8.35;4.32;;;23.50;99.90;;;;;;4959834;28;20023;-78
2022/08/05 06:31:49;;;;;;;14.32;4.38;;;23.50;99.90;;;;;;4955308;28;20074;-78
2022/08/05 06:34:14;;;;;;;11.93;4.20;;;23.50;99.90;;;;;;4955107;29;20098;-78
2022/08/05 06:36:40;;;;;;;11.90;4.30;;;23.50;99.90;;;;;;4954919;29;20439;-77
2022/08/05 06:39:05;;;;;;;9.80;3.90;;;23.50;99.90;;;;;;4954601;29;20479;-78
2022/08/05 06:41:31;;;;;;;9.05;4.30;;;23.60;99.90;;;;;;4954725;29;20447;-78
2022/08/05 06:43:57;;;;;;;12.68;4.53;;;23.50;99.90;;;;;;4954710;29;20381;-77
2022/08/05 06:46:23;;;;;;;12.10;4.05;;;23.60;99.90;;;;;;4955041;29;20028;-78
2022/08/05 06:48:49;;;;;;;9.65;4.07;;;23.60;99.90;;;;;;4955330;28;20031;-78
2022/08/05 06:51:14;;;;;;;9.93;4.38;;;23.60;99.90;;;;;;4972375;28;20110;-78
2022/08/05 06:53:40;;;;;;;8.68;4.30;;;23.70;99.90;;;;;;4954366;29;20019;-78
2022/08/05 06:56:06;;;;;;;13.02;4.60;;;23.60;99.90;;;;;;4958647;28;20035;-78
2022/08/05 06:58:31;;;;;;;10.60;4.75;;;23.60;99.90;;;;;;4973785;28;20037;-78
2022/08/05 07:00:59;;;;;;;12.68;4.30;;;23.50;99.90;;;;;;4964373;28;20074;-78
2022/08/05 07:03:25;;;;;;;10.43;4.13;;;23.60;99.90;;;;;;4954566;29;20035;-78
2022/08/05 07:05:51;;;;;;;11.85;4.72;;;23.60;99.90;;;;;;4954779;29;20082;-78
2022/08/05 07:08:17;;;;;;;10.77;4.13;;;23.60;99.90;;;;;;4954201;29;20035;-78
2022/08/05 07:10:42;;;;;;;11.52;5.10;;;23.70;99.90;;;;;;4954147;29;20468;-78
2022/08/05 07:18:36;;;;;;;13.98;5.05;;;23.70;99.90;;;;;;4954198;29;20514;-77
2022/08/05 07:21:04;;;;;;;12.18;5.75;;;23.70;99.90;;;;;;4954135;29;20035;-77
2022/08/05 07:23:29;;;;;;;13.23;5.90;;;23.70;99.90;;;;;;4953966;29;20408;-77
2022/08/05 07:25:55;;;;;;;14.65;5.35;;;23.70;99.90;;;;;;4954214;29;20038;-77
2022/08/05 07:28:21;;;;;;;10.10;5.40;;;23.60;99.90;;;;;;4954566;29;20034;-77
2022/08/05 07:30:47;;;;;;;10.82;5.55;;;23.40;99.90;;;;;;4953824;28;20061;-77
2022/08/05 07:33:12;;;;;;;14.95;5.40;;;23.40;99.90;;;;;;4953820;28;20030;-76
2022/08/05 07:35:38;;;;;;;16.02;5.53;;;23.50;99.90;;;;;;4945492;29;20073;-77
2022/08/05 07:38:04;;;;;;;12.38;5.18;;;23.50;99.90;;;;;;4953122;29;20091;-79
2022/08/05 07:40:30;;;;;;;16.58;5.28;;;23.50;99.90;;;;;;4953617;29;20031;-72
2022/08/05 07:42:56;;;;;;;11.10;5.43;;;23.50;99.90;;;;;;4953573;29;20020;-74
2022/08/05 07:45:22;;;;;;;11.55;4.40;;;23.60;99.90;;;;;;4953999;29;20039;-72
2022/08/05 07:47:48;;;;;;;16.27;5.82;;;23.50;99.90;;;;;;4953571;29;20106;-73
2022/08/05 07:50:13;;;;;;;11.50;5.47;;;23.50;99.90;;;;;;4954040;29;20027;-79
2022/08/05 07:52:40;;;;;;;13.63;5.13;;;23.50;99.90;;;;;;4953415;29;20407;-72
2022/08/05 07:55:07;;;;;;;12.32;5.15;;;23.50;99.90;;;;;;4953409;28;20464;-72
2022/08/05 07:57:32;;;;;;;10.88;4.95;;;23.50;99.90;;;;;;4953462;29;20082;-71
2022/08/05 07:59:58;;;;;;;11.50;5.55;;;23.60;99.90;;;;;;4952991;28;20483;-73
2022/08/05 08:02:25;;;;;;;12.75;5.22;;;23.60;99.90;;;;;;4952839;29;20027;-79
2022/08/05 08:04:51;;;;;;;10.93;5.55;;;23.70;99.90;;;;;;4953637;29;20434;-80
2022/08/05 08:07:17;;;;;;;9.30;4.95;;;23.80;99.90;;;;;;4936160;29;20024;-80
2022/08/05 08:09:44;;;;;;;10.20;5.30;;;23.90;99.90;;;;;;4953746;29;20038;-79
2022/08/05 08:12:12;;;;;;;17.02;6.20;;;24.00;99.90;;;;;;4954042;29;20019;-81
2022/08/05 08:14:38;;;;;;;12.32;5.60;;;24.10;99.90;;;;;;4960158;28;20030;-77
2022/08/05 08:17:03;;;;;;;12.38;4.97;;;24.00;99.90;;;;;;4955360;28;20615;-77
2022/08/05 08:19:29;;;;;;;11.93;5.43;;;24.10;99.90;;;;;;4965531;28;20081;-76
2022/08/05 08:21:55;;;;;;;12.75;5.32;;;24.10;99.90;;;;;;4960591;28;20055;-76
2022/08/05 08:24:20;;;;;;;14.50;4.75;;;24.00;99.90;;;;;;4961633;28;20057;-77
2022/08/05 08:26:47;;;;;;;7.63;4.15;;;24.00;99.90;;;;;;4961365;28;20498;-72
2022/08/05 08:29:13;;;;;;;12.00;4.85;;;24.10;99.90;;;;;;4961950;28;20542;-72
2022/08/05 08:31:38;;;;;;;15.13;4.78;;;24.30;99.90;;;;;;4961939;28;20036;-73
2022/08/05 08:34:06;;;;;;;10.85;4.35;;;24.20;99.90;;;;;;4953657;29;20031;-72
2022/08/05 08:36:32;;;;;;;12.68;4.50;;;24.30;99.90;;;;;;4952652;28;20023;-72
2022/08/05 08:38:57;;;;;;;12.25;4.75;;;24.30;99.90;;;;;;4953448;29;20424;-72
2022/08/05 08:41:26;;;;;;;10.68;3.90;;;24.30;99.90;;;;;;4953223;29;20027;-72
2022/08/05 08:43:54;;;;;;;15.80;4.93;;;24.30;99.90;;;;;;4959966;28;20698;-72
2022/08/05 08:46:22;;;;;;;14.88;5.20;;;24.30;99.90;;;;;;4954015;29;20447;-81
2022/08/05 08:48:50;;;;;;;8.70;4.40;;;24.30;99.90;;;;;;4952988;29;20031;-78
2022/08/05 08:51:18;;;;;;;13.45;4.85;;;24.30;99.90;;;;;;4952492;29;20580;-78
2022/08/05 09:45:40;;;;;;;14.40;4.95;;;27.90;99.90;;;;;;5934209;23;20006;-79
2022/08/05 09:48:28;;;;;;;11.77;5.45;;;28.20;98.90;;;;;;4961524;28;20047;-79
2022/08/05 09:50:59;;;;;;;11.27;4.95;;;28.30;97.60;;;;;;4958630;28;20050;-74
2022/08/05 09:53:26;;;;;;;16.90;4.83;;;28.10;98.20;;;;;;4951793;28;20248;-78
2022/08/05 09:55:54;;;;;;;10.82;4.57;;;28.40;97.50;;;;;;4945937;28;20038;-78
2022/08/05 09:58:20;;;;;;;12.82;5.25;;;28.50;97.00;;;;;;4967846;28;20094;-79
2022/08/05 10:01:01;;;;;;;9.68;4.70;;;28.80;95.80;;;;;;4973668;28;20475;-79
2022/08/05 10:03:28;;;;;;;12.25;4.88;;;29.30;95.00;;;;;;4958447;28;20034;-79
2022/08/05 10:06:08;;;;;;;10.50;4.28;;;29.40;94.50;;;;;;4973805;28;20105;-78
2022/08/05 10:08:37;;;;;;;17.95;4.50;;;29.50;93.50;;;;;;4961071;28;20494;-78
2022/08/05 10:11:11;;;;;;;8.80;4.43;;;29.60;93.80;;;;;;4966451;28;20428;-78
2022/08/05 10:13:38;;;;;;;9.07;4.10;;;29.90;92.50;;;;;;4966407;28;20026;-78
2022/08/05 10:16:05;;;;;;;10.73;3.78;;;29.60;92.60;;;;;;4964804;28;20032;-80
2022/08/05 10:18:32;;;;;;;10.43;4.00;;;30.20;92.10;;;;;;4956202;29;20031;-77
2022/08/05 10:21:05;;;;;;;18.70;3.97;;;30.30;91.00;;;;;;4966384;28;20045;-77
2022/08/05 10:23:36;;;;;;;13.75;4.18;;;30.20;90.10;;;;;;4956463;28;20042;-77
2022/08/05 10:26:05;;;;;;;14.52;3.70;;;30.50;89.20;;;;;;4955197;28;20428;-78
2022/08/05 10:28:31;;;;;;;9.07;3.40;;;30.50;88.00;;;;;;4955280;28;20082;-80
2022/08/05 10:30:59;;;;;;;9.52;3.10;;;30.80;87.70;;;;;;4937838;29;20033;-79
2022/08/05 10:33:27;;;;;;;11.95;2.65;;;29.70;90.20;;;;;;4955245;29;20030;-80
2022/08/05 10:35:54;;;;;;;8.52;2.60;;;29.50;90.30;;;;;;4954326;29;20024;-80
2022/08/05 10:38:25;;;;;;;10.32;2.13;;;30.30;88.10;;;;;;4954706;29;20031;-80
2022/08/05 10:41:00;;;;;;;5.63;2.40;;;30.30;87.00;;;;;;4952220;29;20038;-79
2022/08/05 10:43:46;;;;;;;6.05;1.95;;;30.00;86.70;;;;;;4954691;29;20082;-79
2022/08/05 10:46:17;;;;;;;7.78;1.92;;;29.60;86.50;;;;;;4947637;29;20051;-80
2022/08/05 10:48:45;;;;;;;6.80;1.58;;;29.30;88.20;;;;;;4932859;29;20024;-80
2022/08/05 10:51:13;;;;;;;3.60;1.40;;;29.60;85.60;;;;;;4939827;29;20086;-80
2022/08/05 10:54:00;;;;;;;4.78;1.60;;;30.50;82.90;;;;;;4922776;29;20024;-80
2022/08/05 10:56:28;;;;;;;7.13;1.77;;;30.10;82.40;;;;;;4934981;29;20044;-80
2022/08/05 10:58:53;;;;;;;9.00;2.03;;;29.70;83.80;;;;;;4903552;29;20396;-79
2022/08/05 11:01:40;;;;;;;6.88;1.80;;;29.60;84.30;;;;;;4916930;29;20115;-81
2022/08/05 11:04:16;;;;;;;5.30;1.58;;;29.40;86.60;;;;;;4932087;29;20574;-81
2022/08/05 11:06:57;;;;;;;6.75;1.85;;;30.30;83.00;;;;;;4916498;29;20032;-82
2022/08/05 11:09:27;;;;;;;6.30;1.60;;;30.40;81.80;;;;;;4919446;29;20547;-82
2022/08/05 11:11:54;;;;;;;4.85;2.00;;;30.40;78.50;;;;;;4928916;29;20024;-82
2022/08/05 11:14:27;;;;;;;9.18;2.35;;;30.00;80.20;;;;;;4936954;29;20440;-80
2022/08/05 11:17:26;;;;;;;5.70;1.70;;;30.00;80.80;;;;;;4933233;29;20023;-74
2022/08/05 11:19:54;;;;;;;5.30;1.70;;;31.00;77.50;;;;;;4930001;29;20455;-80
2022/08/05 11:22:47;;;;;;;5.80;1.80;;;31.30;74.30;;;;;;4933470;29;20510;-84
2022/08/05 11:25:37;;;;;;;10.50;2.10;;;31.50;71.70;;;;;;4914487;29;20385;-84
2022/08/05 11:28:11;;;;;;;4.20;1.50;;;31.40;71.60;;;;;;4928332;29;20023;-81
2022/08/05 11:31:01;;;;;;;7.03;1.50;;;31.30;71.20;;;;;;4911010;29;20093;-81
2022/08/05 11:33:56;;;;;;;7.07;2.00;;;30.90;72.60;;;;;;4932730;29;20066;-80
2022/08/05 11:36:39;;;;;;;8.52;1.42;;;30.40;75.70;;;;;;4934002;29;20119;-82
2022/08/05 11:39:08;;;;;;;6.70;1.80;;;30.90;75.80;;;;;;4934236;29;20062;-79
2022/08/05 11:41:34;;;;;;;7.20;1.58;;;30.80;74.30;;;;;;4935121;29;20051;-80
2022/08/05 11:44:11;;;;;;;7.22;1.67;;;31.00;72.40;;;;;;4936080;29;20028;-81
2022/08/05 11:46:39;;;;;;;4.05;1.55;;;31.50;71.20;;;;;;4932940;29;20047;-81
2022/08/05 11:49:07;;;;;;;7.10;1.83;;;31.90;68.70;;;;;;4929165;29;20020;-80
2022/08/05 11:51:34;;;;;;;5.22;1.60;;;31.70;70.50;;;;;;4933544;29;20106;-80
2022/08/05 11:54:00;;;;;;;6.75;1.70;;;31.20;70.20;;;;;;4932770;29;20019;-80
2022/08/05 11:56:48;;;;;;;7.28;1.83;;;30.70;72.10;;;;;;4934669;29;20020;-81
2022/08/05 11:59:16;;;;;;;6.13;2.00;;;30.70;72.60;;;;;;4932466;29;20051;-80
2022/08/05 12:01:52;;;;;;;5.65;1.70;;;31.30;70.50;;;;;;4933340;29;20083;-80
2022/08/05 12:04:18;;;;;;;7.45;1.67;;;31.70;68.90;;;;;;4933863;29;20023;-80
2022/08/05 12:06:44;;;;;;;7.07;1.70;;;32.00;66.80;;;;;;4936157;29;20049;-80
2022/08/05 12:09:09;;;;;;;7.60;1.40;;;31.50;70.50;;;;;;4932646;29;20063;-80
2022/08/05 12:11:35;;;;;;;5.68;1.60;;;31.50;68.60;;;;;;4926158;29;20046;-81
2022/08/05 12:14:04;;;;;;;6.90;1.95;;;31.80;66.60;;;;;;4931572;29;20027;-82
2022/08/05 12:16:38;;;;;;;5.97;1.77;;;31.80;65.90;;;;;;4931477;29;20095;-80
2022/08/05 12:19:05;;;;;;;11.98;1.85;;;31.90;65.90;;;;;;4930817;29;20028;-81
2022/08/05 12:21:33;;;;;;;3.80;1.80;;;31.80;66.80;;;;;;4932850;29;20042;-80
2022/08/05 12:24:08;;;;;;;4.32;1.60;;;32.20;65.80;;;;;;4932398;29;20023;-82
2022/08/05 12:26:35;;;;;;;11.50;1.83;;;32.60;63.20;;;;;;4922586;29;20428;-82
2022/08/05 12:29:02;;;;;;;6.25;1.80;;;32.30;62.50;;;;;;4934009;29;20087;-81
2022/08/05 12:31:33;;;;;;;4.57;1.90;;;32.10;62.50;;;;;;4931303;29;20149;-82
2022/08/05 12:34:04;;;;;;;7.03;1.90;;;32.10;62.70;;;;;;4933291;29;20400;-82
2022/08/05 12:36:31;;;;;;;5.32;1.70;;;32.50;63.40;;;;;;4932732;29;20558;-82
2022/08/05 12:38:58;;;;;;;7.88;1.83;;;32.10;60.70;;;;;;4933786;29;20564;-82
2022/08/05 12:41:30;;;;;;;7.22;1.83;;;32.00;62.00;;;;;;4936392;29;20035;-82
2022/08/05 12:44:08;;;;;;;5.93;1.90;;;32.10;62.40;;;;;;4910324;29;20444;-81
2022/08/05 12:46:37;;;;;;;6.70;1.60;;;32.30;62.60;;;;;;4938556;29;20110;-81
2022/08/05 12:49:16;;;;;;;7.07;2.00;;;31.60;65.20;;;;;;4924203;29;20475;-81
2022/08/05 12:51:51;;;;;;;6.15;1.45;;;32.10;63.40;;;;;;4951971;29;20043;-80
2022/08/05 12:54:28;;;;;;;6.75;1.85;;;32.60;61.20;;;;;;4938954;29;20047;-81
2022/08/05 12:56:56;;;;;;;3.67;1.52;;;32.40;59.60;;;;;;4944049;29;20019;-80
2022/08/05 12:59:26;;;;;;;5.00;1.40;;;32.40;60.60;;;;;;4936700;29;20035;-80
2022/08/05 13:02:15;;;;;;;11.88;1.85;;;32.40;59.50;;;;;;4921246;29;20038;-81
2022/08/05 13:04:42;;;;;;;5.55;1.70;;;32.40;60.80;;;;;;4944852;29;20040;-80
2022/08/05 13:07:11;;;;;;;5.35;1.55;;;32.50;61.60;;;;;;4931817;29;20055;-81
2022/08/05 13:09:41;;;;;;;4.38;1.30;;;31.90;62.80;;;;;;4929219;29;20023;-81
2022/08/05 13:12:12;;;;;;;6.00;1.42;;;32.00;62.20;;;;;;4939594;29;20035;-81
2022/08/05 13:14:43;;;;;;;10.50;1.55;;;32.20;61.80;;;;;;4945257;29;20035;-80
2022/08/05 13:17:21;;;;;;;4.28;1.70;;;32.30;59.50;;;;;;4937862;29;20038;-80
2022/08/05 13:20:07;;;;;;;4.72;1.83;;;32.50;59.90;;;;;;4942511;29;20099;-80
2022/08/05 13:22:37;;;;;;;13.25;2.05;;;32.50;59.10;;;;;;4940927;29;20038;-80
2022/08/05 13:25:09;;;;;;;9.45;1.88;;;32.70;59.60;;;;;;4931014;29;20102;-80
2022/08/05 13:27:40;;;;;;;4.95;1.70;;;32.50;58.80;;;;;;4930685;29;20059;-80
2022/08/05 13:30:09;;;;;;;;;;;32.30;59.50;;;;;;4937805;29;20048;-80
2022/08/05 13:32:35;;;;;;;12.88;1.90;;;32.30;59.60;;;;;;4929875;29;19933;-80
2022/08/05 13:35:01;;;;;;;11.80;1.92;;;32.50;59.10;;;;;;4931156;29;20519;-80
2022/08/05 13:37:27;;;;;;;4.57;1.50;;;32.40;58.60;;;;;;4928541;29;20040;-80
2022/08/05 13:39:53;;;;;;;9.63;2.17;;;32.40;59.00;;;;;;4935983;29;20039;-80
2022/08/05 13:42:20;;;;;;;8.73;1.92;;;32.40;59.50;;;;;;4936320;29;20038;-80
2022/08/05 13:44:46;;;;;;;6.80;1.55;;;32.40;58.40;;;;;;4941508;29;20081;-80
2022/08/05 13:47:13;;;;;;;7.65;1.92;;;32.20;58.20;;;;;;4917976;29;20757;-80
2022/08/05 13:49:39;;;;;;;6.55;1.67;;;32.30;58.90;;;;;;4938010;29;20510;-80